X  Tanca Dades meteorològiques de l'aviació METAR     EDDK Cologne Bonn Airport
Temperatura
10°C Temperatura
10°C Rosada
100% Humitat



Vent
5 MPH
8 KM/H
2 M/S
4 NUS



150°
SSE
Condicions actuals

Sense núvols Sense núvols
Pressió 1017.95 (hPa) - 30.06 (inHg)
Visibilitat 6 (milla) - 9.7 (km)
Aeroport
Codi aeroport EDDK

Ubicació: Cologne Bonn Airport
Distància: 56 (mi)

Metar:
EDDK 252350Z AUTO 15004KT CAVOK 10/10 Q1018 NOSIG

Temps: 2024-05-26 01:50 CEST